Time;durP1;ratioP1;P1;durP2;ratioP2;P2;SDS_P1;SDS_P2;PMS_P1;PMS_P2;Temp;Humidity;BMP_temperature;BMP_pressure;BME280_temperature;BME280_humidity;BME280_pressure;Samples;Min_cycle;Max_cycle;Signal;HPM_P1;HPM_P2
2021/05/04 00:01:29;;;;;;;6.57;4.50;;;11.50;82.00;;;;;;5020831;28;20065;-69
2021/05/04 00:03:54;;;;;;;6.85;3.63;;;11.50;82.30;;;;;;5023214;28;20076;-70
2021/05/04 00:06:20;;;;;;;5.05;3.60;;;11.50;81.70;;;;;;5025467;28;20993;-69
2021/05/04 00:08:45;;;;;;;4.43;3.60;;;11.40;82.40;;;;;;5025079;28;20096;-69
2021/05/04 00:11:11;;;;;;;6.72;3.88;;;11.40;83.20;;;;;;5021465;28;20487;-69
2021/05/04 00:13:37;;;;;;;11.85;2.75;;;11.40;81.70;;;;;;5021750;28;20136;-70
2021/05/04 00:16:03;;;;;;;5.57;3.42;;;11.50;81.00;;;;;;5022554;28;20693;-69
2021/05/04 00:18:30;;;;;;;8.38;3.50;;;11.50;81.20;;;;;;5024313;28;20042;-69
2021/05/04 00:20:55;;;;;;;4.43;3.38;;;11.50;82.30;;;;;;5021322;28;20042;-69
2021/05/04 00:23:21;;;;;;;2.85;2.60;;;11.40;82.70;;;;;;5023446;28;20038;-69
2021/05/04 00:25:47;;;;;;;5.18;2.60;;;11.50;82.60;;;;;;5022779;28;20029;-70
2021/05/04 00:28:12;;;;;;;3.78;2.97;;;11.40;84.30;;;;;;5022524;28;20048;-69
2021/05/04 00:30:39;;;;;;;2.45;1.77;;;11.30;84.80;;;;;;5020500;28;20049;-70
2021/05/04 00:33:05;;;;;;;5.03;2.70;;;11.40;84.30;;;;;;5018473;28;20041;-70
2021/05/04 00:35:30;;;;;;;4.65;3.15;;;11.30;86.70;;;;;;5022964;28;20052;-70
2021/05/04 00:37:56;;;;;;;5.20;2.85;;;11.20;88.10;;;;;;5022460;28;20397;-70
2021/05/04 00:40:22;;;;;;;5.55;2.40;;;11.00;88.20;;;;;;5018394;28;20502;-70
2021/05/04 00:42:48;;;;;;;5.82;3.25;;;11.00;89.10;;;;;;5019009;28;20993;-70
2021/05/04 00:45:14;;;;;;;6.53;2.63;;;10.90;89.70;;;;;;5017891;28;20045;-69
2021/05/04 00:47:40;;;;;;;6.68;3.05;;;10.90;89.80;;;;;;5017754;28;20136;-69
2021/05/04 00:50:06;;;;;;;4.50;3.22;;;10.80;90.50;;;;;;5017255;28;20480;-70
2021/05/04 00:52:32;;;;;;;3.97;2.90;;;10.80;91.00;;;;;;5020332;28;20045;-69
2021/05/04 00:54:58;;;;;;;3.72;2.80;;;10.70;91.60;;;;;;5016532;28;20095;-69
2021/05/04 00:57:24;;;;;;;3.75;3.33;;;10.70;91.60;;;;;;5016662;28;20053;-69
2021/05/04 00:59:51;;;;;;;4.10;3.00;;;10.60;92.10;;;;;;5018104;28;20064;-69
2021/05/04 01:02:18;;;;;;;4.50;3.28;;;10.50;92.20;;;;;;5019262;28;20057;-69
2021/05/04 01:04:45;;;;;;;4.80;3.15;;;10.40;92.30;;;;;;5020672;28;20041;-69
2021/05/04 01:07:10;;;;;;;3.85;3.30;;;10.40;92.60;;;;;;5022754;28;20041;-69
2021/05/04 01:09:36;;;;;;;4.70;3.50;;;10.30;93.40;;;;;;5020025;28;20047;-69
2021/05/04 01:12:02;;;;;;;3.85;3.45;;;10.30;93.60;;;;;;5015572;28;20040;-69
2021/05/04 01:14:28;;;;;;;7.22;3.55;;;10.20;93.90;;;;;;5020794;28;20597;-69
2021/05/04 01:16:55;;;;;;;5.47;4.30;;;10.10;94.70;;;;;;5023245;28;20488;-69
2021/05/04 01:19:22;;;;;;;6.65;3.60;;;10.10;95.00;;;;;;5017119;28;20038;-69
2021/05/04 01:21:48;;;;;;;5.82;4.13;;;10.00;95.00;;;;;;5017708;28;20037;-69
2021/05/04 01:24:15;;;;;;;4.63;3.63;;;9.90;95.30;;;;;;5019919;28;20100;-69
2021/05/04 01:26:45;;;;;;;5.30;4.32;;;9.90;95.50;;;;;;5021039;28;20034;-69
2021/05/04 01:29:12;;;;;;;7.72;4.60;;;9.90;96.30;;;;;;5021467;28;20037;-69
2021/05/04 01:31:39;;;;;;;4.95;4.03;;;9.80;96.30;;;;;;5019880;28;20044;-69
2021/05/04 01:34:06;;;;;;;8.07;4.00;;;9.70;96.70;;;;;;5020145;28;20761;-69
2021/05/04 01:36:35;;;;;;;8.40;4.63;;;9.60;97.40;;;;;;5023326;28;20147;-69
2021/05/04 01:39:04;;;;;;;5.65;5.10;;;9.60;97.40;;;;;;5016981;28;20040;-69
2021/05/04 01:41:30;;;;;;;4.82;4.32;;;9.50;97.70;;;;;;5016925;28;20054;-69
2021/05/04 01:43:58;;;;;;;7.38;4.43;;;9.40;98.00;;;;;;5019569;28;20057;-69
2021/05/04 01:46:24;;;;;;;6.05;5.18;;;9.40;98.40;;;;;;5021207;28;20519;-69
2021/05/04 01:48:51;;;;;;;9.55;4.50;;;9.50;98.50;;;;;;5021341;28;20033;-69
2021/05/04 01:51:17;;;;;;;5.93;4.93;;;9.40;98.40;;;;;;5018570;28;20040;-69
2021/05/04 01:53:43;;;;;;;5.90;4.32;;;9.40;98.30;;;;;;5020823;28;20852;-69
2021/05/04 01:56:09;;;;;;;5.10;4.13;;;9.30;98.30;;;;;;5020638;28;20126;-69
2021/05/04 01:58:35;;;;;;;8.52;3.88;;;9.30;98.20;;;;;;5020665;28;20563;-69
2021/05/04 02:01:01;;;;;;;8.45;5.00;;;9.30;98.20;;;;;;5018359;28;20041;-69
2021/05/04 02:03:26;;;;;;;5.70;4.57;;;9.40;98.70;;;;;;5020422;28;20037;-69
2021/05/04 02:05:52;;;;;;;4.38;3.97;;;9.30;98.80;;;;;;5023346;28;20198;-69
2021/05/04 02:08:18;;;;;;;7.35;5.05;;;9.30;98.90;;;;;;5024423;28;20044;-69
2021/05/04 02:10:44;;;;;;;5.65;2.42;;;9.30;98.70;;;;;;5018579;28;20041;-69
2021/05/04 02:13:09;;;;;;;4.88;4.00;;;9.30;99.00;;;;;;5024156;28;20053;-69
2021/05/04 02:15:35;;;;;;;9.15;5.35;;;9.20;99.40;;;;;;5023546;28;20053;-69
2021/05/04 02:18:01;;;;;;;5.93;4.32;;;9.10;99.70;;;;;;5026372;28;20534;-69
2021/05/04 02:20:27;;;;;;;3.95;3.58;;;9.10;99.90;;;;;;5018905;28;21786;-69
2021/05/04 02:22:53;;;;;;;5.03;3.65;;;9.00;99.90;;;;;;5025479;28;20038;-69
2021/05/04 02:25:18;;;;;;;8.90;4.28;;;9.00;99.90;;;;;;5021543;28;20045;-68
2021/05/04 02:27:44;;;;;;;8.38;3.78;;;9.00;99.90;;;;;;5023857;28;20798;-69
2021/05/04 02:30:10;;;;;;;3.95;2.88;;;8.90;99.90;;;;;;5022987;28;20034;-69
2021/05/04 02:32:36;;;;;;;7.05;3.92;;;8.90;99.90;;;;;;5021041;28;20561;-68
2021/05/04 02:35:03;;;;;;;8.10;3.70;;;8.80;99.90;;;;;;5026749;28;20037;-68
2021/05/04 02:37:29;;;;;;;4.25;3.42;;;8.80;99.90;;;;;;5025182;28;20104;-69
2021/05/04 02:39:55;;;;;;;8.85;3.53;;;8.80;99.90;;;;;;5021191;28;20788;-69
2021/05/04 02:42:21;;;;;;;6.07;3.00;;;8.80;99.90;;;;;;5018787;28;20040;-69
2021/05/04 02:44:46;;;;;;;7.97;3.10;;;8.80;99.90;;;;;;5022771;28;20037;-69
2021/05/04 02:47:13;;;;;;;4.65;2.67;;;8.70;99.90;;;;;;5023575;28;20041;-69
2021/05/04 02:49:38;;;;;;;3.95;3.05;;;8.70;99.90;;;;;;5023906;28;20471;-69
2021/05/04 02:52:05;;;;;;;5.28;3.00;;;8.90;99.90;;;;;;5019055;28;20054;-69
2021/05/04 02:54:30;;;;;;;4.63;2.90;;;8.70;99.90;;;;;;5026876;28;20037;-69
2021/05/04 02:56:56;;;;;;;4.53;2.50;;;8.70;99.90;;;;;;5024071;28;20033;-69
2021/05/04 02:59:22;;;;;;;7.00;3.38;;;8.70;99.90;;;;;;5024780;28;20034;-69
2021/05/04 03:01:47;;;;;;;6.15;3.30;;;8.70;99.90;;;;;;5022074;28;20401;-69
2021/05/04 03:04:14;;;;;;;5.30;2.20;;;8.70;99.90;;;;;;5025713;28;20064;-69
2021/05/04 03:06:39;;;;;;;5.95;2.60;;;8.80;99.90;;;;;;5024467;28;20164;-69
2021/05/04 03:09:06;;;;;;;5.20;3.20;;;8.70;99.90;;;;;;5021032;28;20132;-69
2021/05/04 03:11:32;;;;;;;4.82;2.63;;;8.70;99.90;;;;;;5022842;28;20052;-69
2021/05/04 03:13:57;;;;;;;2.47;1.88;;;8.70;99.90;;;;;;5024911;28;20053;-69
2021/05/04 03:16:23;;;;;;;4.32;2.70;;;8.70;99.90;;;;;;5025014;28;20112;-69
2021/05/04 03:18:48;;;;;;;3.60;3.08;;;8.60;99.90;;;;;;5023743;28;20080;-69
2021/05/04 03:21:15;;;;;;;4.45;2.45;;;8.70;99.90;;;;;;5021022;28;20548;-69
2021/05/04 03:23:40;;;;;;;4.70;3.22;;;8.80;99.90;;;;;;5022225;28;20046;-69
2021/05/04 03:26:06;;;;;;;5.80;3.08;;;8.70;99.90;;;;;;5026462;28;20049;-69
2021/05/04 03:28:32;;;;;;;5.97;3.05;;;8.60;99.90;;;;;;5022569;28;20046;-69
2021/05/04 03:30:57;;;;;;;3.78;3.03;;;8.60;99.90;;;;;;5022739;28;20061;-69
2021/05/04 03:33:23;;;;;;;5.40;2.83;;;8.70;99.90;;;;;;5024871;28;20048;-69
2021/05/04 03:35:49;;;;;;;4.63;3.00;;;8.60;99.90;;;;;;5024263;28;20059;-69
2021/05/04 03:38:14;;;;;;;4.25;2.40;;;8.60;99.90;;;;;;5025636;28;20037;-69
2021/05/04 03:40:40;;;;;;;5.13;2.92;;;8.60;99.90;;;;;;5021284;28;20045;-69
2021/05/04 03:43:06;;;;;;;3.65;3.17;;;8.70;99.90;;;;;;5025925;28;20090;-69
2021/05/04 03:45:32;;;;;;;5.57;3.30;;;8.60;99.90;;;;;;5024262;28;20046;-69
2021/05/04 03:47:58;;;;;;;5.53;2.80;;;8.60;99.90;;;;;;5025501;28;20100;-69
2021/05/04 03:50:26;;;;;;;8.35;2.85;;;8.60;99.90;;;;;;5019744;28;20045;-69
2021/05/04 03:52:53;;;;;;;7.07;2.97;;;8.70;99.90;;;;;;5024398;28;20073;-69
2021/05/04 03:55:19;;;;;;;4.63;3.05;;;8.70;99.90;;;;;;5026463;28;20045;-69
2021/05/04 03:57:45;;;;;;;3.47;2.80;;;8.70;99.90;;;;;;5025028;28;20037;-69
2021/05/04 04:00:13;;;;;;;3.25;1.98;;;8.70;99.90;;;;;;5023667;28;20037;-69
2021/05/04 04:02:39;;;;;;;7.47;3.42;;;8.60;99.90;;;;;;5020359;28;20888;-69
2021/05/04 04:05:06;;;;;;;2.53;1.70;;;8.70;99.90;;;;;;5025857;28;20857;-69
2021/05/04 04:07:32;;;;;;;3.78;3.10;;;8.70;99.90;;;;;;5024400;28;20034;-69
2021/05/04 04:09:58;;;;;;;5.10;3.38;;;8.60;99.90;;;;;;5025243;28;20038;-69
2021/05/04 04:12:24;;;;;;;3.95;3.13;;;8.60;99.90;;;;;;5018743;28;20100;-69
2021/05/04 04:14:51;;;;;;;4.20;3.35;;;8.60;99.90;;;;;;5020853;28;20100;-69
2021/05/04 04:17:17;;;;;;;3.97;2.80;;;8.60;99.90;;;;;;5020349;28;20068;-69
2021/05/04 04:19:42;;;;;;;6.07;2.50;;;8.60;99.90;;;;;;5022644;28;20446;-69
2021/05/04 04:22:08;;;;;;;3.78;2.10;;;8.70;99.90;;;;;;5019707;28;20034;-69
2021/05/04 04:24:33;;;;;;;3.05;2.42;;;8.70;99.90;;;;;;5022953;28;20037;-69
2021/05/04 04:26:59;;;;;;;4.30;2.55;;;8.70;99.90;;;;;;5021502;28;20037;-69
2021/05/04 04:29:25;;;;;;;2.75;2.30;;;8.70;99.90;;;;;;5021648;28;20688;-69
2021/05/04 04:31:52;;;;;;;2.58;2.35;;;8.70;99.90;;;;;;5021296;28;20589;-69
2021/05/04 04:34:18;;;;;;;3.03;2.20;;;8.70;99.90;;;;;;5024781;28;20049;-69
2021/05/04 04:36:44;;;;;;;3.97;2.88;;;8.80;99.90;;;;;;5022537;28;20041;-69
2021/05/04 04:39:10;;;;;;;3.92;2.67;;;8.70;99.90;;;;;;5023009;28;20157;-69
2021/05/04 04:41:36;;;;;;;5.03;2.25;;;8.70;99.90;;;;;;5016979;28;20037;-69
2021/05/04 04:44:03;;;;;;;2.30;2.10;;;8.80;99.90;;;;;;5024333;28;20037;-69
2021/05/04 04:46:39;;;;;;;3.35;2.65;;;8.70;99.90;;;;;;5022321;28;20116;-69
2021/05/04 04:49:11;;;;;;;2.75;2.05;;;8.80;99.90;;;;;;5021437;28;20825;-69
2021/05/04 04:51:37;;;;;;;4.57;2.70;;;8.80;99.90;;;;;;5020033;28;20044;-69
2021/05/04 04:54:04;;;;;;;3.25;2.20;;;8.80;99.90;;;;;;5023620;28;20139;-69
2021/05/04 04:56:29;;;;;;;4.70;2.55;;;8.80;99.90;;;;;;5023968;28;21023;-69
2021/05/04 04:58:56;;;;;;;3.00;2.70;;;8.70;99.90;;;;;;5019376;28;20046;-69
2021/05/04 05:01:21;;;;;;;3.28;2.40;;;8.70;99.90;;;;;;5019902;28;20061;-69
2021/05/04 05:03:47;;;;;;;5.20;2.92;;;8.70;99.90;;;;;;5024126;28;20068;-69
2021/05/04 05:06:13;;;;;;;6.78;3.10;;;8.70;99.90;;;;;;5018560;28;20041;-69
2021/05/04 05:08:39;;;;;;;4.43;2.92;;;8.70;99.90;;;;;;5023563;28;20051;-69
2021/05/04 05:11:05;;;;;;;3.97;2.70;;;8.70;99.90;;;;;;5018747;28;20057;-69
2021/05/04 05:13:31;;;;;;;3.53;2.55;;;8.70;99.90;;;;;;5022927;28;20065;-69
2021/05/04 05:15:57;;;;;;;5.47;3.20;;;8.70;99.90;;;;;;5020895;28;20101;-69
2021/05/04 05:18:22;;;;;;;4.10;2.75;;;8.70;99.90;;;;;;5022829;28;20561;-69
2021/05/04 05:20:48;;;;;;;3.25;2.78;;;8.60;99.90;;;;;;5017521;28;20135;-69
2021/05/04 05:23:14;;;;;;;4.80;2.40;;;8.60;99.90;;;;;;5018988;28;20041;-69
2021/05/04 05:25:40;;;;;;;8.35;2.45;;;8.60;99.90;;;;;;5018213;28;20519;-69
2021/05/04 05:28:07;;;;;;;4.20;1.60;;;8.70;99.90;;;;;;5018460;28;20037;-69
2021/05/04 05:30:33;;;;;;;5.88;1.73;;;8.90;99.90;;;;;;5020281;28;20038;-69
2021/05/04 05:32:59;;;;;;;5.07;2.45;;;9.00;99.90;;;;;;5021469;28;20087;-69
2021/05/04 05:35:25;;;;;;;4.63;1.92;;;9.00;99.90;;;;;;5024412;28;20038;-69
2021/05/04 05:37:51;;;;;;;5.03;1.70;;;9.00;99.90;;;;;;5021037;28;20522;-70
2021/05/04 05:40:17;;;;;;;5.47;2.10;;;9.10;99.90;;;;;;5019836;28;20045;-69
2021/05/04 05:42:43;;;;;;;6.10;1.77;;;9.10;99.90;;;;;;5024676;28;20041;-70
2021/05/04 05:45:09;;;;;;;7.35;1.90;;;9.10;99.90;;;;;;5022158;28;20033;-69
2021/05/04 05:47:36;;;;;;;5.20;2.05;;;9.10;99.90;;;;;;5025245;28;20038;-69
2021/05/04 05:50:04;;;;;;;7.15;1.70;;;9.10;99.90;;;;;;5021915;28;20049;-69
2021/05/04 05:52:30;;;;;;;5.03;1.35;;;9.20;99.90;;;;;;5019696;28;20475;-69
2021/05/04 05:54:56;;;;;;;3.72;1.95;;;9.20;99.90;;;;;;5022133;28;20128;-69
2021/05/04 05:57:22;;;;;;;3.33;1.95;;;9.20;99.90;;;;;;5026547;28;20054;-69
2021/05/04 05:59:48;;;;;;;5.82;2.40;;;9.30;99.90;;;;;;5024040;28;20040;-69
2021/05/04 06:02:13;;;;;;;3.13;1.20;;;9.30;99.90;;;;;;5005705;28;20128;-69
2021/05/04 06:04:39;;;;;;;3.80;1.45;;;9.40;99.90;;;;;;5024598;28;20092;-69
2021/05/04 06:07:05;;;;;;;3.75;2.05;;;9.40;99.90;;;;;;5024000;28;20439;-69
2021/05/04 06:09:31;;;;;;;3.63;1.58;;;9.40;99.90;;;;;;5022048;28;20456;-69
2021/05/04 06:11:56;;;;;;;6.22;1.48;;;9.50;99.90;;;;;;5019580;28;20056;-69
2021/05/04 06:14:22;;;;;;;3.65;1.20;;;9.60;99.90;;;;;;5022969;28;20064;-69
2021/05/04 06:16:48;;;;;;;4.60;1.20;;;9.60;99.90;;;;;;5014971;28;20045;-69
2021/05/04 06:19:14;;;;;;;4.15;1.88;;;9.70;99.90;;;;;;5020359;28;20396;-69
2021/05/04 06:21:39;;;;;;;2.28;0.70;;;9.70;99.90;;;;;;5017411;28;20099;-69
2021/05/04 06:24:06;;;;;;;2.65;1.30;;;9.70;99.90;;;;;;5024275;28;20391;-69
2021/05/04 06:26:31;;;;;;;2.80;1.52;;;9.80;99.90;;;;;;5023763;28;20131;-69
2021/05/04 06:28:57;;;;;;;3.50;1.50;;;9.70;99.90;;;;;;5022989;28;20037;-69
2021/05/04 06:31:24;;;;;;;2.95;1.25;;;9.80;99.90;;;;;;5010398;28;22049;-69
2021/05/04 06:33:50;;;;;;;1.73;1.10;;;9.70;99.90;;;;;;5015557;28;20042;-69
2021/05/04 06:36:16;;;;;;;3.58;1.30;;;9.80;99.90;;;;;;5010562;28;20538;-69
2021/05/04 06:38:42;;;;;;;2.63;1.55;;;9.80;99.90;;;;;;5005001;28;20127;-69
2021/05/04 06:41:08;;;;;;;5.32;1.52;;;9.80;99.90;;;;;;5009657;28;20041;-69
2021/05/04 06:43:34;;;;;;;6.20;2.85;;;9.80;99.90;;;;;;5013878;28;20445;-69
2021/05/04 06:46:03;;;;;;;8.90;1.92;;;9.80;99.90;;;;;;5008348;28;20044;-69
2021/05/04 06:48:28;;;;;;;5.25;2.22;;;9.80;99.90;;;;;;5008232;28;20092;-69
2021/05/04 06:50:57;;;;;;;10.02;2.33;;;9.80;99.90;;;;;;5004800;28;20115;-70
2021/05/04 06:53:24;;;;;;;8.13;1.90;;;9.90;99.90;;;;;;5011270;28;20037;-69
2021/05/04 06:55:49;;;;;;;7.68;1.83;;;10.00;99.90;;;;;;5011002;28;20477;-70
2021/05/04 06:58:16;;;;;;;6.53;1.63;;;10.20;99.90;;;;;;5012323;28;20045;-70
2021/05/04 07:00:41;;;;;;;11.38;2.42;;;10.30;99.90;;;;;;5009305;28;21755;-70
2021/05/04 07:03:07;;;;;;;8.50;1.90;;;10.30;99.90;;;;;;5014802;28;20095;-69
2021/05/04 07:05:33;;;;;;;12.68;3.10;;;10.30;99.90;;;;;;5010463;28;20080;-70
2021/05/04 07:07:59;;;;;;;10.55;1.80;;;10.60;99.90;;;;;;5011713;28;20056;-70
2021/05/04 07:10:26;;;;;;;8.50;2.95;;;11.00;99.90;;;;;;5007775;28;20198;-70
2021/05/04 07:12:52;;;;;;;9.48;1.92;;;11.30;99.90;;;;;;5010267;28;20034;-70
2021/05/04 07:15:18;;;;;;;16.20;3.05;;;11.50;99.60;;;;;;5010162;28;20041;-70
2021/05/04 07:17:43;;;;;;;15.32;2.95;;;11.40;99.50;;;;;;5016172;28;20115;-70
2021/05/04 07:20:10;;;;;;;8.02;1.80;;;11.30;98.90;;;;;;5012903;28;20072;-70
2021/05/04 07:22:36;;;;;;;10.80;3.13;;;11.30;99.10;;;;;;5007308;28;20131;-70
2021/05/04 07:25:03;;;;;;;10.60;2.30;;;11.30;99.10;;;;;;5012164;28;20120;-70
2021/05/04 07:27:29;;;;;;;8.45;1.98;;;11.40;98.80;;;;;;5011775;28;20065;-70
2021/05/04 07:29:55;;;;;;;10.32;2.20;;;11.40;97.90;;;;;;5012943;28;20555;-70
2021/05/04 07:32:21;;;;;;;9.15;1.70;;;11.40;98.00;;;;;;5008850;28;20043;-70
2021/05/04 07:34:48;;;;;;;11.68;2.00;;;11.50;98.10;;;;;;5009840;28;20056;-70
2021/05/04 07:37:14;;;;;;;10.60;2.67;;;11.60;98.40;;;;;;5009730;28;20037;-70
2021/05/04 07:39:41;;;;;;;16.20;2.65;;;11.70;98.20;;;;;;5006366;28;20050;-70
2021/05/04 07:42:07;;;;;;;13.25;2.55;;;11.90;97.70;;;;;;5007098;28;20052;-70
2021/05/04 07:44:33;;;;;;;17.30;2.92;;;11.90;97.10;;;;;;5002894;28;20060;-70
2021/05/04 07:46:59;;;;;;;17.15;3.40;;;12.00;97.00;;;;;;5008157;28;20664;-70
2021/05/04 07:49:36;;;;;;;11.73;2.38;;;12.00;97.10;;;;;;5002820;28;20531;-70
2021/05/04 07:52:03;;;;;;;14.48;2.20;;;12.00;96.70;;;;;;5005221;28;20482;-70
2021/05/04 07:54:31;;;;;;;14.95;2.97;;;12.00;97.00;;;;;;5003714;28;20060;-70
2021/05/04 07:56:57;;;;;;;12.70;3.10;;;11.90;97.00;;;;;;5005321;28;20218;-70
2021/05/04 07:59:23;;;;;;;10.82;2.60;;;11.90;97.20;;;;;;5012049;28;20567;-70
2021/05/04 08:01:49;;;;;;;13.30;3.15;;;11.80;97.00;;;;;;5012612;28;20104;-70
2021/05/04 08:04:15;;;;;;;11.02;3.08;;;11.60;96.60;;;;;;5016921;28;20038;-70
2021/05/04 08:06:41;;;;;;;15.13;2.95;;;11.50;97.10;;;;;;5015415;28;20558;-70
2021/05/04 08:09:07;;;;;;;9.23;1.85;;;11.50;97.50;;;;;;5016160;28;20037;-70
2021/05/04 08:11:35;;;;;;;16.77;3.83;;;11.70;97.10;;;;;;5014342;28;20448;-70
2021/05/04 08:14:02;;;;;;;12.90;2.72;;;11.80;96.10;;;;;;5017650;28;20049;-70
2021/05/04 08:16:30;;;;;;;19.17;3.25;;;11.90;96.10;;;;;;5017819;28;20462;-70
2021/05/04 08:18:56;;;;;;;13.45;2.80;;;12.00;95.90;;;;;;5017212;28;20144;-70
2021/05/04 08:21:22;;;;;;;14.02;2.80;;;12.00;96.20;;;;;;5018594;28;20038;-70
2021/05/04 08:23:48;;;;;;;11.23;2.45;;;12.00;95.80;;;;;;5022857;28;20034;-70
2021/05/04 08:26:14;;;;;;;17.73;3.13;;;11.90;95.50;;;;;;5023099;28;20518;-70
2021/05/04 08:28:40;;;;;;;16.70;3.15;;;11.90;95.70;;;;;;5022023;28;20049;-70
2021/05/04 08:31:06;;;;;;;14.27;2.60;;;12.10;96.00;;;;;;5016228;28;20502;-70
2021/05/04 08:33:33;;;;;;;16.50;3.55;;;12.20;94.50;;;;;;5020097;28;20142;-70
2021/05/04 08:35:58;;;;;;;13.95;3.22;;;12.30;95.90;;;;;;5020004;28;20223;-70
2021/05/04 08:38:24;;;;;;;18.48;2.85;;;12.40;94.10;;;;;;5022449;28;20120;-70
2021/05/04 08:40:50;;;;;;;14.75;2.53;;;12.20;94.10;;;;;;5024504;28;20041;-70
2021/05/04 08:43:21;;;;;;;14.13;2.55;;;12.10;93.70;;;;;;5020820;28;20037;-70
2021/05/04 08:45:57;;;;;;;18.55;2.78;;;11.90;93.90;;;;;;5020602;28;20041;-71
2021/05/04 08:48:24;;;;;;;14.55;2.67;;;11.60;94.80;;;;;;5022697;28;20103;-70
2021/05/04 08:50:52;;;;;;;11.93;2.97;;;11.40;95.90;;;;;;5017120;28;20038;-70
2021/05/04 08:53:18;;;;;;;11.57;2.63;;;11.30;96.40;;;;;;5020041;28;20045;-70
2021/05/04 08:55:44;;;;;;;6.63;1.20;;;11.10;96.50;;;;;;5022558;28;20684;-70
2021/05/04 08:58:10;;;;;;;7.55;1.30;;;10.80;97.40;;;;;;5019779;28;20569;-70
2021/05/04 09:00:36;;;;;;;7.18;1.20;;;10.60;98.40;;;;;;5017611;28;20068;-70
2021/05/04 09:03:23;;;;;;;4.85;0.80;;;10.50;98.90;;;;;;5019317;28;21425;-71
2021/05/04 09:22:44;;;;;;;5.32;1.05;;;12.00;95.70;;;;;;5018772;28;20153;-70
2021/05/04 09:25:28;;;;;;;6.70;1.13;;;12.10;95.30;;;;;;5025209;28;20049;-70
2021/05/04 09:27:58;;;;;;;6.53;1.02;;;12.20;95.40;;;;;;5024819;28;20749;-71
2021/05/04 09:30:24;;;;;;;9.02;1.45;;;12.50;94.00;;;;;;5024763;28;20037;-71
2021/05/04 09:32:50;;;;;;;3.88;1.15;;;12.60;94.30;;;;;;5022993;28;20068;-71
2021/05/04 09:35:16;;;;;;;8.15;1.45;;;12.90;93.90;;;;;;5022427;28;20049;-71
2021/05/04 09:37:43;;;;;;;9.82;1.83;;;12.90;94.30;;;;;;5022671;28;20446;-70
2021/05/04 09:40:29;;;;;;;7.00;1.70;;;12.90;94.00;;;;;;5025335;28;20049;-70
2021/05/04 09:43:04;;;;;;;10.87;2.27;;;12.80;95.30;;;;;;5020710;28;20712;-71
2021/05/04 09:45:30;;;;;;;;;;;12.80;95.60;;;;;;5021708;28;20080;-70
2021/05/04 09:48:18;;;;;;;9.30;1.23;;;12.60;95.00;;;;;;5023208;28;20063;-70
2021/05/04 09:51:17;;;;;;;10.35;1.60;;;12.40;94.60;;;;;;5022858;28;20099;-70
2021/05/04 09:56:37;;;;;;;10.82;2.10;;;12.00;96.40;;;;;;5024875;28;20120;-70
2021/05/04 09:59:04;;;;;;;9.10;2.05;;;11.90;96.70;;;;;;5024120;28;20484;-70
2021/05/04 10:01:30;;;;;;;9.85;1.80;;;12.00;97.20;;;;;;5019202;28;20063;-70
2021/05/04 10:03:56;;;;;;;9.70;1.90;;;12.00;96.70;;;;;;5026111;28;20119;-70
2021/05/04 10:06:22;;;;;;;12.30;2.50;;;11.90;96.50;;;;;;5024722;28;20049;-70
2021/05/04 10:08:49;;;;;;;8.13;1.88;;;12.00;97.20;;;;;;5022168;28;20384;-70
2021/05/04 10:11:19;;;;;;;12.10;1.67;;;11.80;96.80;;;;;;5022510;28;20112;-71
2021/05/04 10:13:47;;;;;;;7.13;1.10;;;11.80;96.70;;;;;;5023795;28;20152;-70
2021/05/04 10:16:13;;;;;;;6.75;1.38;;;11.70;95.80;;;;;;5025428;28;20069;-70
2021/05/04 10:18:38;;;;;;;10.55;1.95;;;11.70;96.40;;;;;;5022472;28;20061;-71
2021/05/04 10:21:07;;;;;;;6.38;1.67;;;11.40;97.10;;;;;;5021536;28;20720;-70
2021/05/04 10:23:35;;;;;;;9.10;1.48;;;11.30;97.90;;;;;;5022725;28;20050;-71
2021/05/04 10:26:04;;;;;;;12.32;2.10;;;11.20;98.80;;;;;;5022274;28;20060;-70
2021/05/04 10:28:35;;;;;;;6.25;1.42;;;11.10;99.00;;;;;;5025690;28;20037;-70
2021/05/04 10:31:03;;;;;;;6.68;1.65;;;11.00;99.70;;;;;;5020525;28;20045;-70
2021/05/04 10:33:31;;;;;;;7.53;1.67;;;11.00;99.40;;;;;;5021141;28;20091;-70
2021/05/04 10:35:57;;;;;;;7.43;0.88;;;10.90;99.30;;;;;;5020937;28;20127;-70
2021/05/04 10:38:26;;;;;;;3.13;0.45;;;10.80;99.40;;;;;;5024691;28;20664;-70
2021/05/04 10:41:04;;;;;;;2.70;0.50;;;10.70;98.40;;;;;;5018291;28;20045;-70
2021/05/04 10:43:30;;;;;;;3.97;0.47;;;10.50;98.90;;;;;;5024411;28;20041;-70
2021/05/04 10:45:58;;;;;;;0.93;0.20;;;10.40;99.40;;;;;;5019836;28;20063;-70
2021/05/04 10:48:38;;;;;;;2.25;0.30;;;10.20;98.90;;;;;;5021253;28;20045;-70
2021/05/04 10:51:13;;;;;;;3.22;0.47;;;10.10;99.20;;;;;;5019026;28;20041;-70
2021/05/04 10:53:56;;;;;;;3.22;0.30;;;9.90;99.90;;;;;;5020932;28;20124;-70
2021/05/04 10:56:40;;;;;;;4.70;1.15;;;9.90;99.90;;;;;;5021912;28;20419;-70
2021/05/04 10:59:34;;;;;;;1.95;0.40;;;10.10;99.90;;;;;;5024034;28;20041;-70
2021/05/04 11:02:09;;;;;;;5.13;1.08;;;10.30;99.90;;;;;;5006244;28;20114;-70
2021/05/04 11:04:39;;;;;;;1.75;0.75;;;10.70;99.90;;;;;;5023911;28;20137;-70
2021/05/04 11:07:05;;;;;;;2.53;0.40;;;10.80;99.40;;;;;;5017212;28;20539;-70
2021/05/04 11:09:31;;;;;;;6.38;1.20;;;10.90;98.90;;;;;;5024069;28;20042;-70
2021/05/04 11:11:58;;;;;;;4.57;0.73;;;10.90;98.80;;;;;;5020077;28;20049;-70
2021/05/04 11:14:26;;;;;;;3.45;0.80;;;10.70;98.20;;;;;;5022865;28;20934;-70
2021/05/04 11:16:57;;;;;;;7.50;1.23;;;10.70;98.60;;;;;;5024371;28;20131;-70
2021/05/04 11:19:28;;;;;;;5.40;0.88;;;10.80;99.00;;;;;;5021194;28;20033;-70
2021/05/04 11:22:05;;;;;;;5.57;0.90;;;11.00;98.00;;;;;;5017338;28;20158;-70
2021/05/04 11:24:33;;;;;;;8.05;1.40;;;11.00;97.80;;;;;;5023172;28;20049;-70
2021/05/04 11:27:05;;;;;;;4.70;0.52;;;10.90;98.00;;;;;;5021852;28;20481;-69
2021/05/04 11:29:31;;;;;;;4.55;0.77;;;10.60;96.80;;;;;;5021516;28;20511;-70
2021/05/04 11:32:18;;;;;;;1.30;0.40;;;10.30;97.40;;;;;;5017147;28;20041;-70
2021/05/04 11:35:06;;;;;;;3.80;0.50;;;10.00;98.60;;;;;;5020457;28;20037;-70
2021/05/04 11:37:36;;;;;;;2.70;0.70;;;9.90;99.50;;;;;;5023370;28;20175;-70
2021/05/04 11:40:15;;;;;;;5.88;0.88;;;9.90;99.60;;;;;;5021934;28;20033;-70
2021/05/04 11:42:49;;;;;;;4.78;0.63;;;10.00;99.90;;;;;;5021002;28;20088;-70
2021/05/04 11:45:24;;;;;;;9.63;1.20;;;10.00;99.90;;;;;;5023256;28;20053;-70
2021/05/04 11:47:51;;;;;;;7.45;0.95;;;10.00;99.20;;;;;;5020876;28;20053;-70
2021/05/04 11:50:20;;;;;;;6.53;0.70;;;9.90;99.60;;;;;;5020891;28;20056;-71
2021/05/04 11:52:48;;;;;;;4.07;0.75;;;9.90;99.90;;;;;;5021859;28;20042;-70
2021/05/04 11:55:22;;;;;;;4.90;0.90;;;9.90;99.90;;;;;;5019897;28;20395;-69
2021/05/04 11:58:05;;;;;;;5.18;0.80;;;9.80;99.90;;;;;;5021057;28;20041;-69
2021/05/04 12:00:38;;;;;;;1.73;0.30;;;9.60;99.40;;;;;;5016715;28;20167;-69
2021/05/04 12:03:09;;;;;;;2.17;0.40;;;9.50;99.90;;;;;;5021957;28;20041;-69
2021/05/04 12:05:36;;;;;;;2.03;0.35;;;9.40;99.90;;;;;;5023305;28;20106;-70
2021/05/04 12:08:02;;;;;;;4.63;1.13;;;9.20;99.70;;;;;;5020602;28;20053;-69
2021/05/04 12:10:37;;;;;;;5.55;1.38;;;9.10;99.90;;;;;;5019535;28;20480;-70
2021/05/04 12:13:12;;;;;;;5.50;1.70;;;8.90;99.90;;;;;;5021757;28;20046;-69
2021/05/04 12:15:43;;;;;;;8.52;2.33;;;9.00;99.90;;;;;;5021048;28;20037;-70
2021/05/04 12:18:23;;;;;;;6.70;1.27;;;9.60;99.90;;;;;;5019832;28;20052;-70
2021/05/04 12:20:57;;;;;;;5.00;1.60;;;9.90;99.90;;;;;;5018865;28;20563;-70
2021/05/04 12:23:30;;;;;;;9.50;1.80;;;10.00;99.90;;;;;;5021017;28;20072;-70
2021/05/04 12:26:03;;;;;;;8.73;1.58;;;10.00;99.90;;;;;;5021217;28;20037;-70
2021/05/04 12:28:50;;;;;;;7.18;1.85;;;9.90;99.90;;;;;;5019881;28;20050;-70
2021/05/04 12:31:44;;;;;;;7.88;1.58;;;9.90;99.90;;;;;;5019722;28;20665;-70
2021/05/04 12:34:10;;;;;;;6.53;1.83;;;9.80;99.90;;;;;;5018536;28;20049;-70
2021/05/04 12:36:48;;;;;;;12.38;2.13;;;9.70;99.80;;;;;;5020554;28;20041;-69
2021/05/04 12:39:29;;;;;;;9.35;2.00;;;9.70;99.90;;;;;;5019111;28;20049;-70
2021/05/04 12:42:01;;;;;;;6.07;0.80;;;9.90;99.90;;;;;;5019258;28;20199;-71
2021/05/04 12:44:28;;;;;;;3.28;0.75;;;10.20;99.90;;;;;;5019874;28;20041;-70
2021/05/04 12:47:07;;;;;;;5.05;1.00;;;10.20;99.20;;;;;;5021607;28;20365;-70
2021/05/04 12:49:40;;;;;;;4.15;1.33;;;10.20;98.80;;;;;;5021160;28;20136;-70
2021/05/04 12:52:10;;;;;;;5.57;0.82;;;9.90;99.10;;;;;;5014162;28;20077;-70
2021/05/04 12:54:38;;;;;;;5.38;1.20;;;9.70;99.50;;;;;;5019178;28;20037;-70
2021/05/04 12:57:27;;;;;;;7.90;0.85;;;9.60;99.50;;;;;;5019112;28;20045;-70
2021/05/04 12:59:54;;;;;;;3.53;0.77;;;9.50;99.90;;;;;;5020874;28;20060;-70
2021/05/04 13:02:22;;;;;;;4.20;0.80;;;9.50;99.90;;;;;;5018060;28;20040;-70
2021/05/04 13:04:58;;;;;;;3.85;1.33;;;9.50;99.90;;;;;;5019371;28;20056;-70
2021/05/04 13:07:43;;;;;;;2.53;0.60;;;9.60;99.90;;;;;;5018827;28;20131;-70
2021/05/04 13:13:43;;;;;;;4.47;0.77;;;9.90;98.90;;;;;;5021055;28;20042;-70
2021/05/04 13:30:18;;;;;;;12.82;1.75;;;9.70;98.20;;;;;;5020228;28;20403;-70
2021/05/04 13:32:48;;;;;;;9.10;1.60;;;9.60;99.20;;;;;;5020250;28;20037;-70